Time;durP1;ratioP1;P1;durP2;ratioP2;P2;SDS_P1;SDS_P2;PMS_P1;PMS_P2;Temp;Humidity;BMP_temperature;BMP_pressure;BME280_temperature;BME280_humidity;BME280_pressure;Samples;Min_cycle;Max_cycle;Signal;HPM_P1;HPM_P2
2023/10/20 00:00:07;;;;;;;0.95;0.60;;;7.50;99.90;;;;;;5014619;28;20044;-78
2023/10/20 00:02:36;;;;;;;1.15;1.08;;;7.50;99.90;;;;;;5014892;28;20442;-77
2023/10/20 00:05:05;;;;;;;1.17;1.08;;;7.50;99.90;;;;;;5015731;28;20133;-77
2023/10/20 00:07:30;;;;;;;0.68;0.65;;;7.50;99.90;;;;;;5015550;28;20033;-77
2023/10/20 00:09:56;;;;;;;7.03;2.85;;;7.50;99.90;;;;;;5015216;28;20048;-77
2023/10/20 00:12:22;;;;;;;6.75;2.47;;;7.50;99.90;;;;;;5014960;28;20046;-77
2023/10/20 00:14:47;;;;;;;1.65;1.05;;;7.50;99.90;;;;;;5015051;28;20038;-77
2023/10/20 00:17:13;;;;;;;2.03;1.10;;;7.50;99.90;;;;;;5015222;28;20049;-77
2023/10/20 00:19:38;;;;;;;0.63;0.57;;;7.50;99.90;;;;;;5015221;28;20042;-77
2023/10/20 00:22:04;;;;;;;4.85;2.97;;;7.50;99.90;;;;;;5014728;28;20049;-77
2023/10/20 00:24:29;;;;;;;0.55;0.52;;;7.50;99.90;;;;;;5015161;28;20038;-78
2023/10/20 00:26:55;;;;;;;7.32;2.95;;;7.50;99.90;;;;;;5015012;28;20403;-78
2023/10/20 00:29:21;;;;;;;3.55;2.40;;;7.50;99.90;;;;;;5013948;28;20042;-77
2023/10/20 00:31:47;;;;;;;2.08;1.42;;;7.50;99.90;;;;;;5015260;28;20060;-78
2023/10/20 00:34:12;;;;;;;1.85;1.10;;;7.50;99.90;;;;;;5015941;28;20045;-78
2023/10/20 00:36:38;;;;;;;1.08;0.95;;;7.50;99.90;;;;;;5016094;28;20042;-77
2023/10/20 00:39:05;;;;;;;1.55;0.90;;;7.50;99.90;;;;;;5015343;28;20100;-78
2023/10/20 00:41:31;;;;;;;0.93;0.90;;;7.50;99.90;;;;;;5015438;28;20488;-78
2023/10/20 00:43:57;;;;;;;2.30;1.38;;;7.50;99.90;;;;;;5006975;28;20121;-78
2023/10/20 00:46:23;;;;;;;2.45;1.17;;;7.50;99.90;;;;;;5015633;28;20042;-77
2023/10/20 00:48:49;;;;;;;1.65;1.50;;;7.50;99.90;;;;;;5015115;28;20568;-78
2023/10/20 00:51:15;;;;;;;0.75;0.75;;;7.50;99.90;;;;;;5014891;28;20037;-78
2023/10/20 00:53:41;;;;;;;0.93;0.88;;;7.50;99.90;;;;;;5014669;28;20168;-78
2023/10/20 00:56:07;;;;;;;2.47;2.13;;;7.50;99.90;;;;;;5014541;28;20511;-77
2023/10/20 00:58:33;;;;;;;1.52;1.05;;;7.50;99.90;;;;;;5014605;28;20046;-78
2023/10/20 01:00:59;;;;;;;3.80;2.42;;;7.50;99.90;;;;;;5014708;28;20093;-78
2023/10/20 01:03:25;;;;;;;2.45;1.85;;;7.50;99.90;;;;;;5014631;28;20037;-77
2023/10/20 01:05:51;;;;;;;2.58;1.70;;;7.50;99.90;;;;;;5014494;28;20403;-77
2023/10/20 01:08:17;;;;;;;3.30;1.98;;;7.50;99.90;;;;;;5013041;28;20069;-78
2023/10/20 01:10:43;;;;;;;1.05;0.93;;;7.50;99.90;;;;;;5013839;28;20034;-77
2023/10/20 01:13:08;;;;;;;1.80;1.45;;;7.50;99.90;;;;;;5013689;28;20048;-77
2023/10/20 01:15:35;;;;;;;0.52;0.52;;;7.50;99.90;;;;;;5013963;28;20292;-77
2023/10/20 01:18:01;;;;;;;5.63;2.53;;;7.50;99.90;;;;;;5016334;28;20410;-78
2023/10/20 01:20:26;;;;;;;0.98;0.95;;;7.50;99.90;;;;;;5013698;28;20137;-79
2023/10/20 01:22:52;;;;;;;0.93;0.93;;;7.50;99.90;;;;;;5015270;28;20124;-78
2023/10/20 01:25:18;;;;;;;3.65;1.10;;;7.50;99.90;;;;;;5015020;28;20041;-78
2023/10/20 01:27:43;;;;;;;0.82;0.82;;;7.50;99.90;;;;;;5014547;28;20419;-78
2023/10/20 01:30:10;;;;;;;7.35;3.08;;;7.50;99.90;;;;;;5015331;28;20041;-78
2023/10/20 01:32:37;;;;;;;4.15;2.80;;;7.50;99.90;;;;;;5015692;28;20087;-79
2023/10/20 01:35:04;;;;;;;5.60;3.50;;;7.60;99.90;;;;;;5015589;28;20420;-78
2023/10/20 01:37:29;;;;;;;1.23;1.13;;;7.50;99.90;;;;;;5015411;28;20037;-78
2023/10/20 01:39:55;;;;;;;1.35;1.25;;;7.50;99.90;;;;;;5016819;28;20042;-79
2023/10/20 01:42:21;;;;;;;1.10;1.02;;;7.50;99.90;;;;;;5016145;28;20141;-78
2023/10/20 01:44:47;;;;;;;3.70;2.30;;;7.50;99.90;;;;;;5016451;28;20073;-79
2023/10/20 01:47:13;;;;;;;1.25;1.15;;;7.50;99.90;;;;;;5015768;28;20064;-78
2023/10/20 01:49:38;;;;;;;2.38;1.70;;;7.50;99.90;;;;;;5014970;28;20037;-78
2023/10/20 01:52:04;;;;;;;2.88;2.15;;;7.50;99.90;;;;;;5014874;28;20081;-78
2023/10/20 01:54:29;;;;;;;3.78;2.45;;;7.50;99.90;;;;;;5014500;28;20046;-79
2023/10/20 01:56:55;;;;;;;3.67;2.03;;;7.50;99.90;;;;;;5014100;28;20089;-78
2023/10/20 01:59:20;;;;;;;0.95;0.95;;;7.50;99.90;;;;;;5014375;28;20050;-78
2023/10/20 02:01:46;;;;;;;0.77;0.77;;;7.60;99.90;;;;;;5014171;28;20068;-78
2023/10/20 02:04:11;;;;;;;1.35;1.02;;;7.50;99.90;;;;;;5014455;28;20042;-77
2023/10/20 02:06:37;;;;;;;1.52;1.42;;;7.60;99.90;;;;;;5015291;28;20038;-79
2023/10/20 02:09:03;;;;;;;2.03;1.85;;;7.60;99.90;;;;;;5018394;28;20048;-78
2023/10/20 02:11:28;;;;;;;0.80;0.80;;;7.50;99.90;;;;;;5017926;28;20046;-78
2023/10/20 02:13:56;;;;;;;7.28;1.02;;;7.60;99.90;;;;;;5017841;28;20034;-78
2023/10/20 02:16:22;;;;;;;0.82;0.77;;;7.50;99.90;;;;;;5017464;28;20048;-78
2023/10/20 02:18:47;;;;;;;6.28;2.63;;;7.60;99.90;;;;;;5018107;28;20503;-78
2023/10/20 02:21:13;;;;;;;0.80;0.80;;;7.50;99.90;;;;;;5016880;28;20073;-79
2023/10/20 02:23:38;;;;;;;2.95;1.83;;;7.60;99.90;;;;;;5017671;28;20037;-78
2023/10/20 02:26:07;;;;;;;1.08;0.98;;;7.60;99.90;;;;;;5017521;28;20376;-78
2023/10/20 02:28:34;;;;;;;2.60;2.20;;;7.60;99.90;;;;;;5017539;28;20042;-78
2023/10/20 02:31:01;;;;;;;0.50;0.50;;;7.50;99.90;;;;;;5018466;28;20045;-77
2023/10/20 02:33:27;;;;;;;2.05;0.80;;;7.60;99.90;;;;;;5017666;28;20038;-78
2023/10/20 02:35:57;;;;;;;2.85;2.60;;;7.60;99.90;;;;;;5017606;28;20049;-78
2023/10/20 02:38:22;;;;;;;0.45;0.45;;;7.60;99.90;;;;;;5017613;28;20038;-78
2023/10/20 02:40:52;;;;;;;3.13;2.05;;;7.60;99.90;;;;;;5017948;28;20125;-78
2023/10/20 02:43:19;;;;;;;1.80;1.67;;;7.60;99.90;;;;;;5018097;28;20046;-78
2023/10/20 02:45:52;;;;;;;1.65;1.55;;;7.60;99.90;;;;;;5018028;28;20072;-78
2023/10/20 02:48:22;;;;;;;0.55;0.55;;;7.60;99.90;;;;;;5017027;28;20492;-78
2023/10/20 02:50:48;;;;;;;0.68;0.68;;;7.60;99.90;;;;;;5017611;28;20042;-79
2023/10/20 02:53:14;;;;;;;0.98;0.95;;;7.60;99.90;;;;;;5017802;28;20038;-79
2023/10/20 02:55:41;;;;;;;2.03;1.55;;;7.60;99.90;;;;;;5018299;28;20046;-78
2023/10/20 02:58:07;;;;;;;1.25;1.15;;;7.60;99.90;;;;;;5018190;28;20044;-78
2023/10/20 03:00:33;;;;;;;0.60;0.40;;;7.60;99.90;;;;;;5017616;28;20057;-78
2023/10/20 03:02:59;;;;;;;0.50;0.50;;;7.60;99.90;;;;;;5018116;28;20038;-78
2023/10/20 03:05:29;;;;;;;0.63;0.63;;;7.50;99.90;;;;;;5017546;28;20100;-78
2023/10/20 03:07:57;;;;;;;0.40;0.40;;;7.60;99.90;;;;;;5016811;28;20038;-78
2023/10/20 03:10:23;;;;;;;1.98;0.93;;;7.50;99.90;;;;;;5016908;28;20053;-78
2023/10/20 03:12:48;;;;;;;0.90;0.90;;;7.60;99.90;;;;;;5017732;28;20100;-80
2023/10/20 03:15:15;;;;;;;0.65;0.65;;;7.50;99.90;;;;;;5017183;28;20122;-78
2023/10/20 03:17:41;;;;;;;0.85;0.85;;;7.50;99.90;;;;;;5017248;28;20057;-79
2023/10/20 03:20:08;;;;;;;0.75;0.75;;;7.60;99.90;;;;;;5016716;28;20042;-78
2023/10/20 03:22:34;;;;;;;2.10;1.92;;;7.50;99.90;;;;;;5017359;28;20053;-79
2023/10/20 03:25:04;;;;;;;1.35;1.15;;;7.50;99.90;;;;;;5017819;28;20049;-78
2023/10/20 03:27:30;;;;;;;1.08;0.65;;;7.50;99.90;;;;;;5017152;28;20046;-79
2023/10/20 03:29:56;;;;;;;0.88;0.88;;;7.50;99.90;;;;;;5017754;28;20042;-78
2023/10/20 03:32:22;;;;;;;1.33;1.23;;;7.50;99.90;;;;;;5018233;28;20041;-78
2023/10/20 03:34:47;;;;;;;3.72;1.58;;;7.50;99.90;;;;;;5017184;28;20030;-77
2023/10/20 03:37:13;;;;;;;2.20;1.25;;;7.40;99.90;;;;;;5016152;28;20157;-77
2023/10/20 03:39:39;;;;;;;1.13;0.80;;;7.50;99.90;;;;;;5015964;28;20503;-77
2023/10/20 03:42:07;;;;;;;1.67;1.58;;;7.50;99.90;;;;;;5015308;28;20119;-78
2023/10/20 03:44:33;;;;;;;0.63;0.60;;;7.50;99.90;;;;;;5015985;28;20038;-77
2023/10/20 03:46:59;;;;;;;0.50;0.50;;;7.50;99.90;;;;;;5015885;28;20041;-77
2023/10/20 03:49:26;;;;;;;2.00;1.80;;;7.50;99.90;;;;;;5013612;28;20045;-77
2023/10/20 03:51:53;;;;;;;3.00;2.08;;;7.40;99.90;;;;;;5016253;28;20046;-77
2023/10/20 03:54:19;;;;;;;2.53;1.23;;;7.40;99.90;;;;;;5016020;28;20053;-78
2023/10/20 03:56:45;;;;;;;3.03;2.25;;;7.40;99.90;;;;;;5016597;28;20089;-78
2023/10/20 03:59:11;;;;;;;3.90;1.60;;;7.40;99.90;;;;;;5017827;28;20463;-77
2023/10/20 04:01:38;;;;;;;2.65;1.05;;;7.40;99.90;;;;;;5015366;28;20045;-77
2023/10/20 04:04:08;;;;;;;2.13;0.55;;;7.40;99.90;;;;;;5015746;28;20046;-77
2023/10/20 04:06:35;;;;;;;3.10;1.42;;;7.40;99.90;;;;;;5015968;28;20400;-78
2023/10/20 04:09:01;;;;;;;5.25;2.80;;;7.40;99.90;;;;;;5015929;28;20042;-78
2023/10/20 04:11:27;;;;;;;2.00;1.35;;;7.30;99.90;;;;;;5014844;28;20053;-78
2023/10/20 04:13:53;;;;;;;0.80;0.40;;;7.30;99.90;;;;;;5015592;28;20498;-78
2023/10/20 04:16:19;;;;;;;1.92;1.65;;;7.30;99.90;;;;;;5016068;28;20042;-78
2023/10/20 04:18:46;;;;;;;1.83;1.73;;;7.30;99.90;;;;;;5016308;28;20061;-79
2023/10/20 04:21:12;;;;;;;7.30;1.23;;;7.30;99.90;;;;;;5016339;28;20045;-77
2023/10/20 04:23:38;;;;;;;4.90;1.85;;;7.30;99.90;;;;;;5016795;28;20038;-78
2023/10/20 04:26:15;;;;;;;0.85;0.20;;;7.30;99.90;;;;;;5016376;28;20046;-78
2023/10/20 04:28:42;;;;;;;3.15;2.20;;;7.30;99.90;;;;;;5016441;28;20120;-78
2023/10/20 04:46:08;;;;;;;0.30;0.30;;;7.30;99.90;;;;;;5008403;28;20422;-77
2023/10/20 05:01:16;;;;;;;0.50;0.45;;;7.30;99.90;;;;;;5010389;28;20045;-77
2023/10/20 05:03:45;;;;;;;0.63;0.32;;;7.30;99.90;;;;;;5014623;28;20124;-78
2023/10/20 05:06:40;;;;;;;0.75;0.75;;;7.30;99.90;;;;;;5015158;28;20112;-79
2023/10/20 05:09:09;;;;;;;0.32;0.22;;;7.30;99.90;;;;;;5010762;28;20128;-78
2023/10/20 05:11:34;;;;;;;0.47;0.47;;;7.30;99.90;;;;;;5014098;28;20049;-78
2023/10/20 05:14:00;;;;;;;0.25;0.25;;;7.30;99.90;;;;;;5014320;28;20057;-78
2023/10/20 05:16:28;;;;;;;2.60;0.88;;;7.30;99.90;;;;;;5014516;28;20045;-78
2023/10/20 05:18:55;;;;;;;0.75;0.73;;;7.30;99.90;;;;;;5014092;28;20088;-78
2023/10/20 05:21:21;;;;;;;0.57;0.57;;;7.40;99.90;;;;;;5013656;28;20057;-78
2023/10/20 05:23:49;;;;;;;1.63;1.33;;;7.30;99.90;;;;;;5014015;28;20476;-78
2023/10/20 05:26:15;;;;;;;1.50;1.25;;;7.30;99.90;;;;;;5013876;28;20107;-77
2023/10/20 05:28:40;;;;;;;1.80;0.50;;;7.30;99.90;;;;;;5012075;28;20121;-77
2023/10/20 05:31:07;;;;;;;0.47;0.47;;;7.40;99.90;;;;;;5012411;28;20131;-78
2023/10/20 05:33:33;;;;;;;0.47;0.47;;;7.40;99.90;;;;;;4996045;28;20056;-77
2023/10/20 05:36:05;;;;;;;1.00;0.77;;;7.40;99.90;;;;;;5012513;28;20034;-77
2023/10/20 05:38:31;;;;;;;0.73;0.73;;;7.40;99.90;;;;;;5013326;28;20056;-77
2023/10/20 05:40:58;;;;;;;0.20;0.20;;;7.40;99.90;;;;;;5028949;28;20046;-78
2023/10/20 05:43:25;;;;;;;1.40;1.30;;;7.40;99.90;;;;;;5013105;28;20050;-78
2023/10/20 05:45:51;;;;;;;0.25;0.20;;;7.40;99.90;;;;;;5013535;28;20415;-77
2023/10/20 05:48:16;;;;;;;1.42;1.30;;;7.40;99.90;;;;;;5013180;28;20050;-78
2023/10/20 05:50:42;;;;;;;0.88;0.63;;;7.40;99.90;;;;;;5013037;28;20441;-77
2023/10/20 05:53:08;;;;;;;0.20;0.20;;;7.40;99.90;;;;;;5013288;28;20049;-78
2023/10/20 05:55:34;;;;;;;0.57;0.38;;;7.40;99.90;;;;;;5013414;28;20085;-77
2023/10/20 05:58:00;;;;;;;4.63;1.75;;;7.40;99.90;;;;;;5013176;28;20053;-78
2023/10/20 06:00:26;;;;;;;1.83;0.25;;;7.40;99.90;;;;;;5013254;28;20053;-78
2023/10/20 06:02:52;;;;;;;0.55;0.52;;;7.40;99.90;;;;;;5013770;28;20048;-78
2023/10/20 06:05:18;;;;;;;1.23;0.68;;;7.40;99.90;;;;;;5014080;28;20129;-78
2023/10/20 06:07:44;;;;;;;1.13;0.68;;;7.40;99.90;;;;;;5013341;28;20121;-78
2023/10/20 06:10:13;;;;;;;1.30;1.20;;;7.40;99.90;;;;;;5013421;28;20129;-78
2023/10/20 06:12:39;;;;;;;0.32;0.30;;;7.40;99.90;;;;;;5013601;28;20038;-78
2023/10/20 06:15:09;;;;;;;0.55;0.32;;;7.40;99.90;;;;;;5013439;28;20507;-78
2023/10/20 06:17:34;;;;;;;1.20;1.00;;;7.40;99.90;;;;;;5013687;28;20046;-78
2023/10/20 06:20:06;;;;;;;0.00;0.00;;;7.50;99.90;;;;;;5012813;28;20042;-78
2023/10/20 06:22:32;;;;;;;0.40;0.28;;;7.40;99.90;;;;;;5014114;28;20376;-78
2023/10/20 06:24:59;;;;;;;0.47;0.47;;;7.50;99.90;;;;;;5013391;28;20037;-78
2023/10/20 06:27:25;;;;;;;1.88;1.17;;;7.50;99.90;;;;;;5005484;28;20049;-78
2023/10/20 06:30:06;;;;;;;0.70;0.55;;;7.50;99.90;;;;;;5013679;28;20042;-78
2023/10/20 06:32:43;;;;;;;0.30;0.30;;;7.50;99.90;;;;;;5005382;28;20108;-78
2023/10/20 06:35:13;;;;;;;1.45;0.52;;;7.50;99.90;;;;;;5013249;28;20048;-78
2023/10/20 06:40:15;;;;;;;2.25;0.77;;;7.50;1.00;;;;;;5013220;28;20568;-78
2023/10/20 06:42:43;;;;;;;3.97;1.35;;;7.50;1.00;;;;;;5005005;28;20044;-78
2023/10/20 06:45:10;;;;;;;0.20;0.15;;;7.50;99.90;;;;;;5013106;28;20586;-78
2023/10/20 06:47:35;;;;;;;0.38;0.25;;;7.50;99.90;;;;;;5012918;28;20042;-77
2023/10/20 06:50:01;;;;;;;2.83;1.65;;;7.50;99.90;;;;;;5010756;28;20049;-78
2023/10/20 06:52:27;;;;;;;1.25;0.85;;;7.60;99.90;;;;;;5009094;28;20041;-78
2023/10/20 06:54:56;;;;;;;0.57;0.57;;;7.50;33.50;;;;;;5013730;28;20046;-78
2023/10/20 06:57:24;;;;;;;0.00;0.00;;;7.50;99.90;;;;;;5015440;28;20400;-79
2023/10/20 06:59:50;;;;;;;0.00;0.00;;;7.50;99.90;;;;;;5016748;28;20042;-79
2023/10/20 07:02:15;;;;;;;0.35;0.35;;;7.50;48.20;;;;;;5014995;28;20565;-78
2023/10/20 07:04:41;;;;;;;0.00;0.00;;;7.50;19.20;;;;;;5014711;28;20073;-78
2023/10/20 07:07:12;;;;;;;0.08;0.08;;;7.50;29.90;;;;;;5014962;28;20385;-78
2023/10/20 07:09:38;;;;;;;0.90;0.65;;;7.50;1.00;;;;;;5014807;28;20034;-78
2023/10/20 07:12:06;;;;;;;0.10;0.10;;;7.40;94.60;;;;;;5014298;28;20052;-78
2023/10/20 07:14:33;;;;;;;0.10;0.10;;;7.40;99.90;;;;;;5015048;28;20133;-78
2023/10/20 07:17:03;;;;;;;0.00;0.00;;;7.40;1.00;;;;;;5014863;28;20073;-78
2023/10/20 07:19:30;;;;;;;0.10;0.10;;;7.40;1.00;;;;;;5014206;28;20404;-78
2023/10/20 07:21:56;;;;;;;0.10;0.10;;;7.40;99.90;;;;;;5012763;28;20085;-78
2023/10/20 07:24:22;;;;;;;0.28;0.15;;;7.30;99.90;;;;;;5014510;28;20077;-78
2023/10/20 07:26:47;;;;;;;0.38;0.38;;;7.30;99.90;;;;;;5014076;28;20049;-78
2023/10/20 07:29:13;;;;;;;0.20;0.20;;;7.20;99.90;;;;;;5014998;28;20100;-78
2023/10/20 07:31:40;;;;;;;0.10;0.10;;;7.30;99.90;;;;;;5014451;28;20042;-79
2023/10/20 07:34:09;;;;;;;0.10;0.10;;;7.20;99.90;;;;;;5015394;28;20066;-78
2023/10/20 07:36:35;;;;;;;7.68;2.38;;;7.20;99.90;;;;;;5013375;28;20041;-78
2023/10/20 07:39:01;;;;;;;0.00;0.00;;;7.20;1.00;;;;;;5014030;28;20468;-78
2023/10/20 07:41:26;;;;;;;0.30;0.30;;;7.20;1.00;;;;;;5013661;28;20049;-78
2023/10/20 07:43:52;;;;;;;0.00;0.00;;;7.20;25.40;;;;;;5013289;28;20098;-78
2023/10/20 07:46:18;;;;;;;2.80;1.25;;;7.80;99.90;;;;;;5014130;28;20045;-78
2023/10/20 07:48:44;;;;;;;0.43;0.20;;;7.10;99.90;;;;;;5012808;28;20046;-78
2023/10/20 07:51:09;;;;;;;0.00;0.00;;;7.10;99.90;;;;;;5012790;28;20038;-78
2023/10/20 07:53:35;;;;;;;0.08;0.08;;;7.10;99.90;;;;;;5012814;28;20045;-79
2023/10/20 07:56:00;;;;;;;0.10;0.10;;;7.10;99.90;;;;;;5012813;28;20053;-79
2023/10/20 07:58:27;;;;;;;1.30;0.80;;;7.10;99.90;;;;;;5012353;28;20057;-78
2023/10/20 08:00:54;;;;;;;0.10;0.10;;;7.10;99.90;;;;;;5013509;28;20061;-78
2023/10/20 08:03:19;;;;;;;0.00;0.00;;;7.10;99.90;;;;;;5013606;28;20092;-79
2023/10/20 08:05:45;;;;;;;1.17;0.70;;;7.00;99.90;;;;;;5013192;28;20050;-78
2023/10/20 08:08:10;;;;;;;0.20;0.20;;;7.00;99.90;;;;;;5013655;28;20044;-78
2023/10/20 08:10:37;;;;;;;0.28;0.28;;;7.00;99.90;;;;;;5005656;28;20095;-79
2023/10/20 08:13:03;;;;;;;0.00;0.00;;;7.00;99.90;;;;;;5013335;28;20101;-78
2023/10/20 08:15:29;;;;;;;13.73;0.70;;;7.00;99.90;;;;;;5013821;28;20138;-78
2023/10/20 08:17:55;;;;;;;0.00;0.00;;;7.00;99.90;;;;;;5014307;28;20547;-78
2023/10/20 08:20:21;;;;;;;0.00;0.00;;;7.00;99.90;;;;;;5012594;28;20045;-78
2023/10/20 08:22:47;;;;;;;0.80;0.45;;;6.90;99.90;;;;;;5013822;28;20108;-79
2023/10/20 08:25:14;;;;;;;0.30;0.30;;;6.90;99.90;;;;;;5015255;28;20042;-79
2023/10/20 08:27:40;;;;;;;0.00;0.00;;;7.00;99.90;;;;;;5013434;28;20041;-78
2023/10/20 08:30:06;;;;;;;0.35;0.35;;;6.90;99.90;;;;;;5013575;28;20092;-78
2023/10/20 08:32:32;;;;;;;0.00;0.00;;;6.90;99.90;;;;;;5012806;28;20115;-79
2023/10/20 08:34:58;;;;;;;0.00;0.00;;;6.90;99.90;;;;;;5014525;28;20459;-79
2023/10/20 08:37:25;;;;;;;1.65;1.15;;;6.90;99.90;;;;;;5014459;28;20050;-79
2023/10/20 08:39:50;;;;;;;0.00;0.00;;;6.90;99.90;;;;;;5015860;28;20117;-79
2023/10/20 08:42:17;;;;;;;0.20;0.20;;;6.90;99.90;;;;;;5014041;28;20523;-79
2023/10/20 08:44:44;;;;;;;0.00;0.00;;;6.80;99.90;;;;;;5016643;28;20046;-79
2023/10/20 08:47:14;;;;;;;0.00;0.00;;;6.80;99.90;;;;;;5016395;28;20042;-79
2023/10/20 08:49:40;;;;;;;0.20;0.20;;;6.80;99.90;;;;;;5017375;28;20042;-80
2023/10/20 08:52:13;;;;;;;1.10;1.00;;;6.80;99.90;;;;;;5018951;28;20496;-81
2023/10/20 08:54:38;;;;;;;0.25;0.20;;;6.80;99.90;;;;;;5016972;28;20053;-82
2023/10/20 08:57:05;;;;;;;0.00;0.00;;;6.80;99.90;;;;;;5017992;28;20507;-80
2023/10/20 08:59:35;;;;;;;0.38;0.38;;;6.80;99.90;;;;;;5018172;28;20049;-81
2023/10/20 09:02:01;;;;;;;0.00;0.00;;;6.80;99.90;;;;;;5017562;28;20042;-81
2023/10/20 09:04:27;;;;;;;0.35;0.25;;;6.80;99.90;;;;;;5016488;28;20487;-81
2023/10/20 09:06:54;;;;;;;0.75;0.65;;;6.70;99.90;;;;;;5016532;28;20073;-81
2023/10/20 09:09:20;;;;;;;0.20;0.15;;;6.70;99.90;;;;;;5017935;28;20042;-81
2023/10/20 09:11:47;;;;;;;0.00;0.00;;;6.80;99.90;;;;;;5017579;28;20034;-81
2023/10/20 09:14:14;;;;;;;0.15;0.15;;;6.70;99.90;;;;;;5016771;28;20060;-81
2023/10/20 09:16:40;;;;;;;0.00;0.00;;;6.70;99.90;;;;;;5016361;28;20049;-81
2023/10/20 09:19:09;;;;;;;0.10;0.10;;;6.70;99.90;;;;;;5015306;28;20048;-80
2023/10/20 09:21:34;;;;;;;0.00;0.00;;;6.70;99.90;;;;;;5016214;28;20049;-80
2023/10/20 09:24:06;;;;;;;0.00;0.00;;;6.70;99.90;;;;;;5015490;28;20072;-80
2023/10/20 09:26:41;;;;;;;0.10;0.10;;;6.70;99.90;;;;;;5013391;28;20053;-80
2023/10/20 09:29:07;;;;;;;0.08;0.08;;;6.70;99.90;;;;;;5010964;28;20042;-78
2023/10/20 09:31:34;;;;;;;0.10;0.10;;;6.70;99.90;;;;;;5012935;28;20038;-79
2023/10/20 09:34:00;;;;;;;0.00;0.00;;;6.70;99.90;;;;;;5013986;28;20037;-79
2023/10/20 09:36:31;;;;;;;0.00;0.00;;;6.60;99.90;;;;;;5013226;28;20068;-79
2023/10/20 09:38:57;;;;;;;0.10;0.10;;;6.60;99.90;;;;;;5014570;28;20041;-80
2023/10/20 09:41:28;;;;;;;0.00;0.00;;;6.70;99.90;;;;;;5016285;28;20813;-80
2023/10/20 09:44:00;;;;;;;0.00;0.00;;;6.70;99.90;;;;;;5016516;28;20042;-81
2023/10/20 09:46:39;;;;;;;0.00;0.00;;;6.60;99.90;;;;;;5016275;28;20515;-81
2023/10/20 09:49:14;;;;;;;0.35;0.32;;;6.60;99.90;;;;;;5015614;28;20128;-80
2023/10/20 09:51:45;;;;;;;2.35;0.75;;;6.60;99.90;;;;;;5016039;28;20399;-80
2023/10/20 09:54:13;;;;;;;0.00;0.00;;;6.60;99.90;;;;;;5017337;28;20112;-81
2023/10/20 09:56:41;;;;;;;3.20;1.33;;;6.60;99.90;;;;;;5017200;28;20110;-81
2023/10/20 09:59:09;;;;;;;0.00;0.00;;;6.60;99.90;;;;;;5016670;28;20142;-80
2023/10/20 10:01:37;;;;;;;0.00;0.00;;;6.60;99.90;;;;;;4999083;28;20485;-80
2023/10/20 10:04:05;;;;;;;0.00;0.00;;;6.50;99.90;;;;;;5017249;28;20074;-81
2023/10/20 10:06:43;;;;;;;1.80;0.90;;;6.50;99.90;;;;;;5017662;28;20073;-81
2023/10/20 10:09:10;;;;;;;0.00;0.00;;;6.50;99.90;;;;;;5017360;28;20394;-81
2023/10/20 10:11:42;;;;;;;1.55;0.57;;;6.50;99.90;;;;;;5017442;28;20613;-81
2023/10/20 10:14:08;;;;;;;0.10;0.10;;;6.50;99.90;;;;;;5009630;28;20678;-81
2023/10/20 10:16:48;;;;;;;0.10;0.10;;;6.50;99.90;;;;;;5017968;28;20061;-81
2023/10/20 10:19:17;;;;;;;0.00;0.00;;;6.50;99.90;;;;;;5015204;28;20080;-81
2023/10/20 10:21:42;;;;;;;0.00;0.00;;;6.60;99.90;;;;;;5016771;28;20053;-80
2023/10/20 10:24:16;;;;;;;0.00;0.00;;;6.50;99.90;;;;;;5016925;28;20030;-82
2023/10/20 10:27:04;;;;;;;0.00;0.00;;;6.50;99.90;;;;;;5017425;28;20041;-81
2023/10/20 10:29:53;;;;;;;0.00;0.00;;;6.50;99.90;;;;;;5017516;28;20069;-81
2023/10/20 10:32:23;;;;;;;0.00;0.00;;;6.50;99.90;;;;;;5021569;28;20045;-80
2023/10/20 10:34:53;;;;;;;0.00;0.00;;;6.50;99.90;;;;;;5021381;28;20042;-80
2023/10/20 10:37:33;;;;;;;0.00;0.00;;;6.40;99.90;;;;;;5021000;28;20084;-83
2023/10/20 10:40:08;;;;;;;0.30;0.30;;;6.40;99.90;;;;;;5020109;28;20046;-81
2023/10/20 10:42:39;;;;;;;0.00;0.00;;;6.40;99.90;;;;;;5020631;28;20407;-81
2023/10/20 10:45:27;;;;;;;0.00;0.00;;;6.40;99.90;;;;;;5020422;28;20046;-82
2023/10/20 10:48:27;;;;;;;0.17;0.17;;;6.40;99.90;;;;;;5016937;28;20049;-81
2023/10/20 10:50:53;;;;;;;0.00;0.00;;;6.40;99.90;;;;;;5006227;28;20057;-82
2023/10/20 10:53:19;;;;;;;0.00;0.00;;;6.40;99.90;;;;;;5020534;28;20053;-80
2023/10/20 10:55:45;;;;;;;0.00;0.00;;;6.40;99.90;;;;;;5020509;28;20503;-81
2023/10/20 10:58:14;;;;;;;0.17;0.10;;;6.30;99.90;;;;;;5019422;28;20050;-81
2023/10/20 11:00:42;;;;;;;0.00;0.00;;;6.30;99.90;;;;;;5019203;28;20129;-81
2023/10/20 11:03:08;;;;;;;0.00;0.00;;;6.30;99.90;;;;;;5017604;28;20084;-80
2023/10/20 11:05:35;;;;;;;0.00;0.00;;;6.30;99.90;;;;;;5019708;28;20109;-81
2023/10/20 11:08:03;;;;;;;0.22;0.22;;;6.30;99.90;;;;;;5021010;28;20041;-80
2023/10/20 11:10:36;;;;;;;0.00;0.00;;;6.30;99.90;;;;;;5021190;28;20046;-81
2023/10/20 11:13:13;;;;;;;0.00;0.00;;;6.20;99.90;;;;;;5022903;28;20083;-80
2023/10/20 11:15:40;;;;;;;0.45;0.45;;;6.20;99.90;;;;;;5021426;28;20049;-80
2023/10/20 11:18:07;;;;;;;0.00;0.00;;;6.20;99.90;;;;;;5021303;28;20038;-80
2023/10/20 11:20:41;;;;;;;0.00;0.00;;;6.20;99.90;;;;;;5020775;28;20096;-81
2023/10/20 11:23:07;;;;;;;0.00;0.00;;;6.20;99.90;;;;;;5020147;28;20060;-80
2023/10/20 11:25:34;;;;;;;0.00;0.00;;;6.20;99.90;;;;;;5022043;28;20038;-80
2023/10/20 11:28:02;;;;;;;0.00;0.00;;;6.20;99.90;;;;;;5020640;28;20407;-80
2023/10/20 11:30:34;;;;;;;0.00;0.00;;;6.30;99.90;;;;;;5021792;28;20045;-82
2023/10/20 11:33:00;;;;;;;0.00;0.00;;;6.30;99.90;;;;;;5022353;28;20098;-82
2023/10/20 11:35:27;;;;;;;0.00;0.00;;;6.30;99.90;;;;;;5019989;28;20096;-79
2023/10/20 11:37:54;;;;;;;0.05;0.05;;;6.30;99.90;;;;;;5017615;28;20037;-79
2023/10/20 11:40:21;;;;;;;0.15;0.15;;;6.30;99.90;;;;;;5018615;28;20057;-80
2023/10/20 11:42:50;;;;;;;0.00;0.00;;;6.30;99.90;;;;;;5021623;28;20042;-80
2023/10/20 11:45:16;;;;;;;0.00;0.00;;;6.30;99.90;;;;;;5019988;28;20050;-80
2023/10/20 11:47:42;;;;;;;0.30;0.30;;;6.30;99.90;;;;;;5003149;28;20049;-80
2023/10/20 11:50:10;;;;;;;0.00;0.00;;;6.30;99.90;;;;;;5019999;28;20045;-81
2023/10/20 11:52:37;;;;;;;0.00;0.00;;;6.30;99.90;;;;;;5020536;28;20056;-80
2023/10/20 11:55:03;;;;;;;0.00;0.00;;;6.30;99.90;;;;;;5019948;28;20460;-81
2023/10/20 11:57:29;;;;;;;0.00;0.00;;;6.30;99.90;;;;;;5019155;28;20066;-81
2023/10/20 11:59:55;;;;;;;0.38;0.25;;;6.30;99.90;;;;;;5021217;28;20088;-82
2023/10/20 12:02:20;;;;;;;0.15;0.00;;;7.50;99.90;;;;;;5021017;28;20470;-81
2023/10/20 12:04:46;;;;;;;0.00;0.00;;;6.30;99.90;;;;;;5019469;28;20556;-80
2023/10/20 12:07:11;;;;;;;0.00;0.00;;;6.30;99.90;;;;;;5019983;28;20061;-81
2023/10/20 12:09:37;;;;;;;0.00;0.00;;;6.30;99.90;;;;;;5019763;28;20133;-81
2023/10/20 12:12:03;;;;;;;0.00;0.00;;;6.30;99.90;;;;;;5019907;28;20053;-81
2023/10/20 12:14:28;;;;;;;0.00;0.00;;;6.30;99.90;;;;;;5019188;28;20566;-81
2023/10/20 12:16:54;;;;;;;0.00;0.00;;;6.30;99.90;;;;;;5019481;28;20073;-81
2023/10/20 12:19:19;;;;;;;0.80;0.28;;;6.30;99.90;;;;;;5020082;28;20589;-81
2023/10/20 12:21:45;;;;;;;0.00;0.00;;;6.30;99.90;;;;;;5020019;28;20415;-82
2023/10/20 12:24:11;;;;;;;0.00;0.00;;;6.30;99.90;;;;;;5019946;28;20070;-81
2023/10/20 12:26:37;;;;;;;0.00;0.00;;;6.30;99.90;;;;;;5019349;28;20045;-81
2023/10/20 12:29:03;;;;;;;0.00;0.00;;;6.30;99.90;;;;;;5019387;28;20262;-82
2023/10/20 12:31:29;;;;;;;0.00;0.00;;;6.40;99.90;;;;;;5019434;28;20053;-81
2023/10/20 12:33:54;;;;;;;0.00;0.00;;;6.40;99.90;;;;;;5018530;28;20396;-81
2023/10/20 12:36:21;;;;;;;0.10;0.10;;;6.30;99.90;;;;;;5020033;28;20056;-82
2023/10/20 12:38:47;;;;;;;0.00;0.00;;;6.20;99.90;;;;;;5019296;28;20046;-81
2023/10/20 12:41:16;;;;;;;0.00;0.00;;;6.30;99.90;;;;;;5019453;28;20042;-81
2023/10/20 12:43:43;;;;;;;0.55;0.50;;;6.30;99.90;;;;;;5019482;28;20122;-81
2023/10/20 12:46:12;;;;;;;0.00;0.00;;;6.30;99.90;;;;;;5018588;28;20060;-81
2023/10/20 12:48:41;;;;;;;0.00;0.00;;;6.30;99.90;;;;;;5018379;28;20046;-81
2023/10/20 12:51:15;;;;;;;0.00;0.00;;;6.30;99.90;;;;;;5018640;28;20100;-82
2023/10/20 12:53:41;;;;;;;0.00;0.00;;;6.30;99.90;;;;;;5018892;28;20085;-82
2023/10/20 12:56:07;;;;;;;0.00;0.00;;;6.30;99.90;;;;;;5018829;28;20053;-82
2023/10/20 12:58:33;;;;;;;0.43;0.43;;;6.40;99.90;;;;;;5019090;28;20052;-81
2023/10/20 13:00:59;;;;;;;0.00;0.00;;;6.30;99.90;;;;;;5019501;28;20077;-82
2023/10/20 13:03:26;;;;;;;0.00;0.00;;;6.30;99.90;;;;;;5018719;28;20050;-81
2023/10/20 13:05:55;;;;;;;0.00;0.00;;;6.30;99.90;;;;;;5019318;28;20114;-82
2023/10/20 13:08:22;;;;;;;0.00;0.00;;;6.30;99.90;;;;;;5018832;28;20073;-82
2023/10/20 13:10:48;;;;;;;0.00;0.00;;;6.30;99.90;;;;;;5018515;28;20041;-81
2023/10/20 13:13:14;;;;;;;0.00;0.00;;;6.30;99.90;;;;;;5018468;28;20038;-82
2023/10/20 13:15:40;;;;;;;0.00;0.00;;;6.30;99.90;;;;;;5017923;28;20092;-82
2023/10/20 13:18:06;;;;;;;0.00;0.00;;;6.30;99.90;;;;;;5018335;28;20049;-82
2023/10/20 13:20:31;;;;;;;0.00;0.00;;;6.30;99.90;;;;;;5018029;28;20046;-82
2023/10/20 13:22:57;;;;;;;0.00;0.00;;;6.30;99.90;;;;;;5018539;28;20664;-82
2023/10/20 13:25:22;;;;;;;0.00;0.00;;;6.30;99.90;;;;;;5018456;28;20038;-82
2023/10/20 13:27:49;;;;;;;0.00;0.00;;;6.30;99.90;;;;;;5017205;28;20153;-81